sensor_id;sensor_type;location;lat;lon;timestamp;P1;durP1;ratioP1;P2;durP2;ratioP2
5616;SDS011;2830;50.656;7.568;2023-07-09T00:02:01;22.30;;;6.17;;
5616;SDS011;2830;50.656;7.568;2023-07-09T00:04:29;21.83;;;6.50;;
5616;SDS011;2830;50.656;7.568;2023-07-09T00:06:56;20.80;;;6.07;;
5616;SDS011;2830;50.656;7.568;2023-07-09T00:09:27;24.87;;;6.00;;
5616;SDS011;2830;50.656;7.568;2023-07-09T00:11:53;20.73;;;5.50;;
5616;SDS011;2830;50.656;7.568;2023-07-09T00:14:20;19.90;;;5.23;;
5616;SDS011;2830;50.656;7.568;2023-07-09T00:16:47;19.90;;;5.47;;
5616;SDS011;2830;50.656;7.568;2023-07-09T00:19:16;18.27;;;5.90;;
5616;SDS011;2830;50.656;7.568;2023-07-09T00:21:45;22.87;;;5.73;;
5616;SDS011;2830;50.656;7.568;2023-07-09T00:24:15;20.70;;;5.57;;
5616;SDS011;2830;50.656;7.568;2023-07-09T00:26:42;25.53;;;5.77;;
5616;SDS011;2830;50.656;7.568;2023-07-09T00:29:12;20.30;;;5.63;;
5616;SDS011;2830;50.656;7.568;2023-07-09T00:31:39;20.63;;;6.60;;
5616;SDS011;2830;50.656;7.568;2023-07-09T00:34:12;19.47;;;6.20;;
5616;SDS011;2830;50.656;7.568;2023-07-09T00:36:41;19.30;;;5.73;;
5616;SDS011;2830;50.656;7.568;2023-07-09T00:39:14;23.00;;;5.73;;
5616;SDS011;2830;50.656;7.568;2023-07-09T00:41:44;20.03;;;5.37;;
5616;SDS011;2830;50.656;7.568;2023-07-09T00:44:37;19.00;;;5.20;;
5616;SDS011;2830;50.656;7.568;2023-07-09T00:49:33;19.73;;;6.47;;
5616;SDS011;2830;50.656;7.568;2023-07-09T00:52:17;25.80;;;6.17;;
5616;SDS011;2830;50.656;7.568;2023-07-09T00:54:54;19.87;;;6.33;;
5616;SDS011;2830;50.656;7.568;2023-07-09T00:57:23;19.00;;;5.80;;
5616;SDS011;2830;50.656;7.568;2023-07-09T00:59:55;19.80;;;6.90;;
5616;SDS011;2830;50.656;7.568;2023-07-09T01:02:39;20.67;;;7.03;;
5616;SDS011;2830;50.656;7.568;2023-07-09T01:05:11;18.77;;;6.10;;
5616;SDS011;2830;50.656;7.568;2023-07-09T01:07:40;22.33;;;6.57;;
5616;SDS011;2830;50.656;7.568;2023-07-09T01:10:07;18.03;;;5.67;;
5616;SDS011;2830;50.656;7.568;2023-07-09T01:12:34;21.37;;;5.90;;
5616;SDS011;2830;50.656;7.568;2023-07-09T01:15:01;20.57;;;5.80;;
5616;SDS011;2830;50.656;7.568;2023-07-09T01:17:28;18.50;;;5.63;;
5616;SDS011;2830;50.656;7.568;2023-07-09T01:19:56;19.00;;;6.17;;
5616;SDS011;2830;50.656;7.568;2023-07-09T01:22:23;20.37;;;5.93;;
5616;SDS011;2830;50.656;7.568;2023-07-09T01:27:22;20.00;;;5.80;;
5616;SDS011;2830;50.656;7.568;2023-07-09T01:29:53;19.03;;;5.87;;
5616;SDS011;2830;50.656;7.568;2023-07-09T01:32:21;18.47;;;5.87;;
5616;SDS011;2830;50.656;7.568;2023-07-09T01:34:50;18.87;;;5.33;;
5616;SDS011;2830;50.656;7.568;2023-07-09T01:37:23;20.17;;;6.67;;
5616;SDS011;2830;50.656;7.568;2023-07-09T01:39:51;21.93;;;6.33;;
5616;SDS011;2830;50.656;7.568;2023-07-09T01:42:19;18.17;;;6.10;;
5616;SDS011;2830;50.656;7.568;2023-07-09T01:44:51;20.17;;;5.67;;
5616;SDS011;2830;50.656;7.568;2023-07-09T01:47:19;17.73;;;4.80;;
5616;SDS011;2830;50.656;7.568;2023-07-09T01:49:49;18.00;;;5.50;;
5616;SDS011;2830;50.656;7.568;2023-07-09T01:52:17;19.57;;;5.90;;
5616;SDS011;2830;50.656;7.568;2023-07-09T01:54:45;22.43;;;6.83;;
5616;SDS011;2830;50.656;7.568;2023-07-09T01:57:19;19.57;;;6.33;;
5616;SDS011;2830;50.656;7.568;2023-07-09T01:59:50;18.50;;;5.83;;
5616;SDS011;2830;50.656;7.568;2023-07-09T02:02:19;20.60;;;5.67;;
5616;SDS011;2830;50.656;7.568;2023-07-09T02:04:46;18.23;;;6.00;;
5616;SDS011;2830;50.656;7.568;2023-07-09T02:07:14;19.67;;;5.80;;
5616;SDS011;2830;50.656;7.568;2023-07-09T02:09:41;18.57;;;5.17;;
5616;SDS011;2830;50.656;7.568;2023-07-09T02:12:09;22.60;;;5.50;;
5616;SDS011;2830;50.656;7.568;2023-07-09T02:14:37;17.33;;;5.17;;
5616;SDS011;2830;50.656;7.568;2023-07-09T02:17:04;17.67;;;5.73;;
5616;SDS011;2830;50.656;7.568;2023-07-09T02:19:32;16.70;;;5.00;;
5616;SDS011;2830;50.656;7.568;2023-07-09T02:21:59;18.37;;;5.90;;
5616;SDS011;2830;50.656;7.568;2023-07-09T02:24:26;25.20;;;5.97;;
5616;SDS011;2830;50.656;7.568;2023-07-09T02:26:54;19.70;;;6.40;;
5616;SDS011;2830;50.656;7.568;2023-07-09T02:29:21;22.70;;;5.73;;
5616;SDS011;2830;50.656;7.568;2023-07-09T02:31:49;21.50;;;5.90;;
5616;SDS011;2830;50.656;7.568;2023-07-09T02:34:17;19.17;;;5.40;;
5616;SDS011;2830;50.656;7.568;2023-07-09T02:36:45;17.60;;;6.17;;
5616;SDS011;2830;50.656;7.568;2023-07-09T02:39:12;26.00;;;5.70;;
5616;SDS011;2830;50.656;7.568;2023-07-09T02:41:40;18.67;;;5.90;;
5616;SDS011;2830;50.656;7.568;2023-07-09T02:44:07;21.27;;;6.47;;
5616;SDS011;2830;50.656;7.568;2023-07-09T02:46:34;18.47;;;6.03;;
5616;SDS011;2830;50.656;7.568;2023-07-09T02:49:05;25.90;;;6.50;;
5616;SDS011;2830;50.656;7.568;2023-07-09T02:51:32;20.30;;;5.60;;
5616;SDS011;2830;50.656;7.568;2023-07-09T02:54:00;17.37;;;5.13;;
5616;SDS011;2830;50.656;7.568;2023-07-09T02:56:29;18.93;;;5.77;;
5616;SDS011;2830;50.656;7.568;2023-07-09T02:58:56;17.83;;;5.57;;
5616;SDS011;2830;50.656;7.568;2023-07-09T03:01:23;17.90;;;5.43;;
5616;SDS011;2830;50.656;7.568;2023-07-09T03:03:54;20.73;;;6.10;;
5616;SDS011;2830;50.656;7.568;2023-07-09T03:06:21;19.20;;;5.87;;
5616;SDS011;2830;50.656;7.568;2023-07-09T03:08:50;21.67;;;5.70;;
5616;SDS011;2830;50.656;7.568;2023-07-09T03:11:18;18.50;;;5.37;;
5616;SDS011;2830;50.656;7.568;2023-07-09T03:13:46;16.83;;;5.20;;
5616;SDS011;2830;50.656;7.568;2023-07-09T03:16:14;21.13;;;5.97;;
5616;SDS011;2830;50.656;7.568;2023-07-09T03:18:41;17.90;;;5.63;;
5616;SDS011;2830;50.656;7.568;2023-07-09T03:21:08;22.90;;;5.07;;
5616;SDS011;2830;50.656;7.568;2023-07-09T03:23:35;18.83;;;6.17;;
5616;SDS011;2830;50.656;7.568;2023-07-09T03:26:02;20.87;;;5.60;;
5616;SDS011;2830;50.656;7.568;2023-07-09T03:28:30;19.57;;;6.40;;
5616;SDS011;2830;50.656;7.568;2023-07-09T03:30:58;18.17;;;5.10;;
5616;SDS011;2830;50.656;7.568;2023-07-09T03:33:25;17.40;;;5.47;;
5616;SDS011;2830;50.656;7.568;2023-07-09T03:35:51;17.93;;;5.50;;
5616;SDS011;2830;50.656;7.568;2023-07-09T03:38:19;18.27;;;5.63;;
5616;SDS011;2830;50.656;7.568;2023-07-09T03:40:49;17.30;;;5.13;;
5616;SDS011;2830;50.656;7.568;2023-07-09T03:43:17;18.17;;;5.37;;
5616;SDS011;2830;50.656;7.568;2023-07-09T03:45:44;21.13;;;5.27;;
5616;SDS011;2830;50.656;7.568;2023-07-09T03:48:12;19.63;;;5.57;;
5616;SDS011;2830;50.656;7.568;2023-07-09T03:50:41;17.07;;;5.03;;
5616;SDS011;2830;50.656;7.568;2023-07-09T03:53:09;25.57;;;4.63;;
5616;SDS011;2830;50.656;7.568;2023-07-09T03:55:37;18.73;;;6.07;;
5616;SDS011;2830;50.656;7.568;2023-07-09T03:58:03;18.43;;;5.20;;
5616;SDS011;2830;50.656;7.568;2023-07-09T04:00:30;17.70;;;5.83;;
5616;SDS011;2830;50.656;7.568;2023-07-09T04:02:58;17.20;;;5.33;;
5616;SDS011;2830;50.656;7.568;2023-07-09T04:05:26;17.53;;;5.87;;
5616;SDS011;2830;50.656;7.568;2023-07-09T04:07:53;18.10;;;5.83;;
5616;SDS011;2830;50.656;7.568;2023-07-09T04:10:20;23.33;;;5.97;;
5616;SDS011;2830;50.656;7.568;2023-07-09T04:12:47;20.50;;;5.00;;
5616;SDS011;2830;50.656;7.568;2023-07-09T04:15:14;18.00;;;4.93;;
5616;SDS011;2830;50.656;7.568;2023-07-09T04:17:40;20.43;;;5.80;;
5616;SDS011;2830;50.656;7.568;2023-07-09T04:20:08;24.90;;;5.27;;
5616;SDS011;2830;50.656;7.568;2023-07-09T04:22:36;18.23;;;5.23;;
5616;SDS011;2830;50.656;7.568;2023-07-09T04:25:04;23.63;;;6.00;;
5616;SDS011;2830;50.656;7.568;2023-07-09T04:27:32;16.30;;;5.30;;
5616;SDS011;2830;50.656;7.568;2023-07-09T04:30:00;19.77;;;5.37;;
5616;SDS011;2830;50.656;7.568;2023-07-09T04:32:26;16.20;;;5.60;;
5616;SDS011;2830;50.656;7.568;2023-07-09T04:34:53;18.77;;;5.40;;
5616;SDS011;2830;50.656;7.568;2023-07-09T04:37:20;19.13;;;5.70;;
5616;SDS011;2830;50.656;7.568;2023-07-09T04:39:47;23.53;;;6.40;;
5616;SDS011;2830;50.656;7.568;2023-07-09T04:42:14;17.03;;;5.13;;
5616;SDS011;2830;50.656;7.568;2023-07-09T04:44:43;20.00;;;6.23;;
5616;SDS011;2830;50.656;7.568;2023-07-09T04:47:10;22.90;;;5.80;;
5616;SDS011;2830;50.656;7.568;2023-07-09T04:49:40;17.37;;;5.50;;
5616;SDS011;2830;50.656;7.568;2023-07-09T04:52:08;17.33;;;5.67;;
5616;SDS011;2830;50.656;7.568;2023-07-09T04:54:39;19.23;;;5.30;;
5616;SDS011;2830;50.656;7.568;2023-07-09T04:57:07;22.40;;;5.90;;
5616;SDS011;2830;50.656;7.568;2023-07-09T04:59:34;22.70;;;6.50;;
5616;SDS011;2830;50.656;7.568;2023-07-09T05:02:01;18.40;;;5.00;;
5616;SDS011;2830;50.656;7.568;2023-07-09T05:04:27;17.10;;;4.93;;
5616;SDS011;2830;50.656;7.568;2023-07-09T05:06:54;22.57;;;6.90;;
5616;SDS011;2830;50.656;7.568;2023-07-09T05:09:21;17.90;;;5.63;;
5616;SDS011;2830;50.656;7.568;2023-07-09T05:11:49;19.20;;;5.60;;
5616;SDS011;2830;50.656;7.568;2023-07-09T05:14:17;20.90;;;6.30;;
5616;SDS011;2830;50.656;7.568;2023-07-09T05:16:44;16.87;;;5.07;;
5616;SDS011;2830;50.656;7.568;2023-07-09T05:19:11;20.00;;;6.57;;
5616;SDS011;2830;50.656;7.568;2023-07-09T05:21:38;18.60;;;5.40;;
5616;SDS011;2830;50.656;7.568;2023-07-09T05:24:05;18.40;;;6.00;;
5616;SDS011;2830;50.656;7.568;2023-07-09T05:26:32;20.20;;;6.20;;
5616;SDS011;2830;50.656;7.568;2023-07-09T05:28:59;26.93;;;6.10;;
5616;SDS011;2830;50.656;7.568;2023-07-09T05:31:26;24.27;;;5.80;;
5616;SDS011;2830;50.656;7.568;2023-07-09T05:33:52;20.60;;;5.50;;
5616;SDS011;2830;50.656;7.568;2023-07-09T05:36:19;22.90;;;6.07;;
5616;SDS011;2830;50.656;7.568;2023-07-09T05:38:46;20.77;;;5.80;;
5616;SDS011;2830;50.656;7.568;2023-07-09T05:41:13;18.87;;;5.03;;
5616;SDS011;2830;50.656;7.568;2023-07-09T05:43:43;19.83;;;5.60;;
5616;SDS011;2830;50.656;7.568;2023-07-09T05:46:13;19.70;;;5.07;;
5616;SDS011;2830;50.656;7.568;2023-07-09T05:48:40;17.47;;;4.90;;
5616;SDS011;2830;50.656;7.568;2023-07-09T05:51:07;17.50;;;5.83;;
5616;SDS011;2830;50.656;7.568;2023-07-09T05:53:35;16.90;;;4.73;;
5616;SDS011;2830;50.656;7.568;2023-07-09T05:56:01;19.70;;;5.90;;
5616;SDS011;2830;50.656;7.568;2023-07-09T05:58:29;17.87;;;6.07;;
5616;SDS011;2830;50.656;7.568;2023-07-09T06:00:55;16.57;;;5.20;;
5616;SDS011;2830;50.656;7.568;2023-07-09T06:03:25;15.87;;;4.73;;
5616;SDS011;2830;50.656;7.568;2023-07-09T06:05:53;17.77;;;5.43;;
5616;SDS011;2830;50.656;7.568;2023-07-09T06:08:20;20.33;;;5.70;;
5616;SDS011;2830;50.656;7.568;2023-07-09T06:10:57;20.37;;;5.47;;
5616;SDS011;2830;50.656;7.568;2023-07-09T06:13:26;19.67;;;4.57;;
5616;SDS011;2830;50.656;7.568;2023-07-09T06:15:54;18.40;;;5.10;;
5616;SDS011;2830;50.656;7.568;2023-07-09T06:18:21;21.10;;;4.60;;
5616;SDS011;2830;50.656;7.568;2023-07-09T06:20:54;19.00;;;4.80;;
5616;SDS011;2830;50.656;7.568;2023-07-09T06:23:21;19.73;;;5.30;;
5616;SDS011;2830;50.656;7.568;2023-07-09T06:25:48;18.90;;;5.13;;
5616;SDS011;2830;50.656;7.568;2023-07-09T06:28:17;18.43;;;4.93;;
5616;SDS011;2830;50.656;7.568;2023-07-09T06:30:45;20.57;;;5.80;;
5616;SDS011;2830;50.656;7.568;2023-07-09T06:33:14;19.40;;;5.60;;
5616;SDS011;2830;50.656;7.568;2023-07-09T06:35:48;19.07;;;4.20;;
5616;SDS011;2830;50.656;7.568;2023-07-09T06:38:17;20.83;;;4.83;;
5616;SDS011;2830;50.656;7.568;2023-07-09T06:40:45;18.83;;;5.40;;
5616;SDS011;2830;50.656;7.568;2023-07-09T06:43:12;18.87;;;4.67;;
5616;SDS011;2830;50.656;7.568;2023-07-09T06:45:47;18.43;;;4.80;;
5616;SDS011;2830;50.656;7.568;2023-07-09T06:48:25;23.60;;;4.20;;
5616;SDS011;2830;50.656;7.568;2023-07-09T06:50:53;18.90;;;4.90;;
5616;SDS011;2830;50.656;7.568;2023-07-09T06:53:21;20.80;;;5.10;;
5616;SDS011;2830;50.656;7.568;2023-07-09T06:55:49;18.10;;;5.10;;
5616;SDS011;2830;50.656;7.568;2023-07-09T06:58:16;19.20;;;4.80;;
5616;SDS011;2830;50.656;7.568;2023-07-09T07:00:43;20.73;;;4.97;;
5616;SDS011;2830;50.656;7.568;2023-07-09T07:03:11;17.47;;;3.47;;
5616;SDS011;2830;50.656;7.568;2023-07-09T07:05:42;19.57;;;4.60;;
5616;SDS011;2830;50.656;7.568;2023-07-09T07:08:10;22.27;;;3.90;;
5616;SDS011;2830;50.656;7.568;2023-07-09T07:10:37;17.57;;;4.03;;
5616;SDS011;2830;50.656;7.568;2023-07-09T07:13:07;18.10;;;4.07;;
5616;SDS011;2830;50.656;7.568;2023-07-09T07:15:36;19.20;;;4.30;;
5616;SDS011;2830;50.656;7.568;2023-07-09T07:18:04;16.80;;;3.53;;
5616;SDS011;2830;50.656;7.568;2023-07-09T07:20:31;20.70;;;3.37;;
5616;SDS011;2830;50.656;7.568;2023-07-09T07:22:58;18.90;;;4.47;;
5616;SDS011;2830;50.656;7.568;2023-07-09T07:25:25;16.63;;;3.90;;
5616;SDS011;2830;50.656;7.568;2023-07-09T07:27:52;20.33;;;4.63;;
5616;SDS011;2830;50.656;7.568;2023-07-09T07:30:19;20.70;;;4.77;;
5616;SDS011;2830;50.656;7.568;2023-07-09T07:32:50;19.07;;;3.90;;
5616;SDS011;2830;50.656;7.568;2023-07-09T07:35:17;21.17;;;4.37;;
5616;SDS011;2830;50.656;7.568;2023-07-09T07:37:47;18.17;;;4.00;;
5616;SDS011;2830;50.656;7.568;2023-07-09T07:40:13;23.30;;;4.13;;
5616;SDS011;2830;50.656;7.568;2023-07-09T07:42:40;16.73;;;3.50;;
5616;SDS011;2830;50.656;7.568;2023-07-09T07:45:07;25.07;;;3.57;;
5616;SDS011;2830;50.656;7.568;2023-07-09T07:47:34;18.03;;;3.93;;
5616;SDS011;2830;50.656;7.568;2023-07-09T07:50:04;18.83;;;3.20;;
5616;SDS011;2830;50.656;7.568;2023-07-09T07:52:32;18.10;;;3.83;;
5616;SDS011;2830;50.656;7.568;2023-07-09T07:55:11;17.93;;;3.57;;
5616;SDS011;2830;50.656;7.568;2023-07-09T07:57:43;19.53;;;3.57;;
5616;SDS011;2830;50.656;7.568;2023-07-09T08:00:10;15.83;;;3.40;;
5616;SDS011;2830;50.656;7.568;2023-07-09T08:02:37;20.77;;;3.97;;
5616;SDS011;2830;50.656;7.568;2023-07-09T08:05:05;16.60;;;3.53;;
5616;SDS011;2830;50.656;7.568;2023-07-09T08:07:32;17.60;;;3.80;;
5616;SDS011;2830;50.656;7.568;2023-07-09T08:09:59;15.50;;;2.93;;
5616;SDS011;2830;50.656;7.568;2023-07-09T08:12:25;21.87;;;4.00;;
5616;SDS011;2830;50.656;7.568;2023-07-09T08:14:52;18.20;;;3.20;;
5616;SDS011;2830;50.656;7.568;2023-07-09T08:17:19;17.30;;;3.60;;
5616;SDS011;2830;50.656;7.568;2023-07-09T08:19:51;17.87;;;3.97;;
5616;SDS011;2830;50.656;7.568;2023-07-09T08:22:19;17.63;;;3.70;;
5616;SDS011;2830;50.656;7.568;2023-07-09T08:24:49;17.40;;;3.37;;
5616;SDS011;2830;50.656;7.568;2023-07-09T08:27:17;18.70;;;4.13;;
5616;SDS011;2830;50.656;7.568;2023-07-09T08:29:44;16.47;;;3.60;;
5616;SDS011;2830;50.656;7.568;2023-07-09T08:32:12;18.40;;;3.60;;
5616;SDS011;2830;50.656;7.568;2023-07-09T08:34:39;17.33;;;4.10;;
5616;SDS011;2830;50.656;7.568;2023-07-09T08:37:27;17.27;;;4.03;;
5616;SDS011;2830;50.656;7.568;2023-07-09T08:39:53;22.10;;;5.20;;
5616;SDS011;2830;50.656;7.568;2023-07-09T08:42:31;18.00;;;3.53;;
5616;SDS011;2830;50.656;7.568;2023-07-09T08:50:42;17.97;;;3.80;;
5616;SDS011;2830;50.656;7.568;2023-07-09T08:53:21;20.57;;;3.43;;
5616;SDS011;2830;50.656;7.568;2023-07-09T08:55:57;17.90;;;3.70;;
5616;SDS011;2830;50.656;7.568;2023-07-09T08:58:25;17.40;;;3.80;;
5616;SDS011;2830;50.656;7.568;2023-07-09T09:00:59;19.10;;;3.73;;
5616;SDS011;2830;50.656;7.568;2023-07-09T09:06:11;15.60;;;3.33;;
5616;SDS011;2830;50.656;7.568;2023-07-09T09:11:14;18.20;;;3.50;;
5616;SDS011;2830;50.656;7.568;2023-07-09T09:13:48;17.57;;;3.60;;
5616;SDS011;2830;50.656;7.568;2023-07-09T09:16:22;17.20;;;3.63;;
5616;SDS011;2830;50.656;7.568;2023-07-09T09:18:59;15.97;;;3.53;;
5616;SDS011;2830;50.656;7.568;2023-07-09T09:21:33;17.27;;;3.70;;
5616;SDS011;2830;50.656;7.568;2023-07-09T09:24:17;18.63;;;4.13;;
5616;SDS011;2830;50.656;7.568;2023-07-09T09:26:48;16.47;;;4.23;;
5616;SDS011;2830;50.656;7.568;2023-07-09T09:29:15;15.97;;;3.63;;
5616;SDS011;2830;50.656;7.568;2023-07-09T09:31:43;17.60;;;4.43;;
5616;SDS011;2830;50.656;7.568;2023-07-09T09:34:19;17.50;;;3.80;;
5616;SDS011;2830;50.656;7.568;2023-07-09T09:36:47;16.90;;;4.00;;
5616;SDS011;2830;50.656;7.568;2023-07-09T09:39:14;18.00;;;4.30;;
5616;SDS011;2830;50.656;7.568;2023-07-09T09:41:43;17.57;;;4.30;;
5616;SDS011;2830;50.656;7.568;2023-07-09T09:44:24;18.27;;;3.73;;
5616;SDS011;2830;50.656;7.568;2023-07-09T09:46:58;14.93;;;3.27;;
5616;SDS011;2830;50.656;7.568;2023-07-09T09:49:26;20.57;;;4.60;;
5616;SDS011;2830;50.656;7.568;2023-07-09T09:51:54;18.00;;;4.30;;
5616;SDS011;2830;50.656;7.568;2023-07-09T09:54:27;16.43;;;4.10;;
5616;SDS011;2830;50.656;7.568;2023-07-09T09:56:57;15.20;;;3.40;;
5616;SDS011;2830;50.656;7.568;2023-07-09T09:59:25;19.73;;;4.07;;
5616;SDS011;2830;50.656;7.568;2023-07-09T10:02:00;19.47;;;3.93;;
5616;SDS011;2830;50.656;7.568;2023-07-09T10:04:29;14.47;;;3.00;;
5616;SDS011;2830;50.656;7.568;2023-07-09T10:06:56;17.50;;;3.30;;
5616;SDS011;2830;50.656;7.568;2023-07-09T10:09:53;15.00;;;3.27;;
5616;SDS011;2830;50.656;7.568;2023-07-09T10:15:26;15.10;;;3.37;;
5616;SDS011;2830;50.656;7.568;2023-07-09T10:18:07;15.90;;;3.63;;
5616;SDS011;2830;50.656;7.568;2023-07-09T10:26:27;16.27;;;3.33;;
5616;SDS011;2830;50.656;7.568;2023-07-09T10:31:55;19.33;;;4.13;;
5616;SDS011;2830;50.656;7.568;2023-07-09T10:34:40;15.13;;;3.20;;
5616;SDS011;2830;50.656;7.568;2023-07-09T10:37:31;15.70;;;3.03;;
5616;SDS011;2830;50.656;7.568;2023-07-09T10:40:16;14.63;;;2.80;;
5616;SDS011;2830;50.656;7.568;2023-07-09T10:42:50;16.20;;;3.43;;
5616;SDS011;2830;50.656;7.568;2023-07-09T10:45:22;14.90;;;3.23;;
5616;SDS011;2830;50.656;7.568;2023-07-09T10:47:59;14.50;;;3.23;;
5616;SDS011;2830;50.656;7.568;2023-07-09T10:50:34;17.87;;;3.30;;
5616;SDS011;2830;50.656;7.568;2023-07-09T10:53:07;15.37;;;3.07;;
5616;SDS011;2830;50.656;7.568;2023-07-09T10:56:12;14.70;;;3.53;;
5616;SDS011;2830;50.656;7.568;2023-07-09T10:58:51;14.53;;;3.07;;
5616;SDS011;2830;50.656;7.568;2023-07-09T11:01:41;15.20;;;3.10;;
5616;SDS011;2830;50.656;7.568;2023-07-09T11:04:10;15.53;;;3.17;;
5616;SDS011;2830;50.656;7.568;2023-07-09T11:06:48;15.30;;;2.83;;
5616;SDS011;2830;50.656;7.568;2023-07-09T11:09:21;17.63;;;4.30;;
5616;SDS011;2830;50.656;7.568;2023-07-09T11:11:53;17.83;;;3.70;;
5616;SDS011;2830;50.656;7.568;2023-07-09T11:14:25;16.10;;;3.13;;
5616;SDS011;2830;50.656;7.568;2023-07-09T11:16:57;16.60;;;3.20;;
5616;SDS011;2830;50.656;7.568;2023-07-09T11:19:25;15.10;;;3.47;;
5616;SDS011;2830;50.656;7.568;2023-07-09T11:22:02;15.70;;;2.93;;
5616;SDS011;2830;50.656;7.568;2023-07-09T11:27:26;15.57;;;3.20;;
5616;SDS011;2830;50.656;7.568;2023-07-09T11:32:27;15.90;;;3.30;;
5616;SDS011;2830;50.656;7.568;2023-07-09T11:35:05;14.43;;;3.03;;
5616;SDS011;2830;50.656;7.568;2023-07-09T11:37:43;14.33;;;2.80;;
5616;SDS011;2830;50.656;7.568;2023-07-09T11:40:11;15.90;;;3.60;;
5616;SDS011;2830;50.656;7.568;2023-07-09T11:42:50;15.23;;;3.27;;
5616;SDS011;2830;50.656;7.568;2023-07-09T11:45:24;16.47;;;3.13;;
5616;SDS011;2830;50.656;7.568;2023-07-09T11:47:55;15.27;;;3.40;;
5616;SDS011;2830;50.656;7.568;2023-07-09T11:50:41;16.93;;;3.10;;
5616;SDS011;2830;50.656;7.568;2023-07-09T11:56:08;15.50;;;3.37;;
5616;SDS011;2830;50.656;7.568;2023-07-09T11:58:35;16.07;;;3.10;;
5616;SDS011;2830;50.656;7.568;2023-07-09T12:01:02;19.00;;;3.20;;
5616;SDS011;2830;50.656;7.568;2023-07-09T12:03:40;16.10;;;3.60;;
5616;SDS011;2830;50.656;7.568;2023-07-09T12:06:28;16.10;;;3.40;;
5616;SDS011;2830;50.656;7.568;2023-07-09T12:08:58;16.60;;;3.33;;
5616;SDS011;2830;50.656;7.568;2023-07-09T12:11:26;15.27;;;3.20;;
5616;SDS011;2830;50.656;7.568;2023-07-09T12:14:00;18.77;;;3.53;;
5616;SDS011;2830;50.656;7.568;2023-07-09T12:16:40;15.03;;;3.23;;
5616;SDS011;2830;50.656;7.568;2023-07-09T12:19:09;16.57;;;3.33;;
5616;SDS011;2830;50.656;7.568;2023-07-09T12:21:39;17.23;;;3.27;;
5616;SDS011;2830;50.656;7.568;2023-07-09T12:24:30;16.77;;;3.20;;
5616;SDS011;2830;50.656;7.568;2023-07-09T12:27:03;16.30;;;3.63;;
5616;SDS011;2830;50.656;7.568;2023-07-09T12:29:50;17.17;;;4.33;;
5616;SDS011;2830;50.656;7.568;2023-07-09T12:32:20;17.57;;;3.50;;
5616;SDS011;2830;50.656;7.568;2023-07-09T12:34:52;16.50;;;3.90;;
5616;SDS011;2830;50.656;7.568;2023-07-09T12:37:20;15.30;;;3.40;;
5616;SDS011;2830;50.656;7.568;2023-07-09T12:39:50;15.67;;;3.70;;
5616;SDS011;2830;50.656;7.568;2023-07-09T12:42:20;20.10;;;3.77;;
5616;SDS011;2830;50.656;7.568;2023-07-09T12:44:50;15.70;;;3.43;;
5616;SDS011;2830;50.656;7.568;2023-07-09T12:47:17;16.50;;;3.40;;
5616;SDS011;2830;50.656;7.568;2023-07-09T12:49:46;16.17;;;3.40;;
5616;SDS011;2830;50.656;7.568;2023-07-09T12:52:21;17.47;;;3.80;;
5616;SDS011;2830;50.656;7.568;2023-07-09T12:54:52;16.37;;;4.03;;
5616;SDS011;2830;50.656;7.568;2023-07-09T12:57:25;17.50;;;3.70;;
5616;SDS011;2830;50.656;7.568;2023-07-09T12:59:54;18.90;;;4.90;;
5616;SDS011;2830;50.656;7.568;2023-07-09T13:02:25;19.30;;;3.80;;
5616;SDS011;2830;50.656;7.568;2023-07-09T13:05:04;23.87;;;4.30;;
5616;SDS011;2830;50.656;7.568;2023-07-09T13:07:33;22.20;;;3.73;;
5616;SDS011;2830;50.656;7.568;2023-07-09T13:10:14;18.20;;;4.00;;
5616;SDS011;2830;50.656;7.568;2023-07-09T13:12:49;18.93;;;4.20;;
5616;SDS011;2830;50.656;7.568;2023-07-09T13:15:31;22.40;;;4.33;;
5616;SDS011;2830;50.656;7.568;2023-07-09T13:18:05;17.53;;;3.77;;
5616;SDS011;2830;50.656;7.568;2023-07-09T13:20:35;20.50;;;4.53;;
5616;SDS011;2830;50.656;7.568;2023-07-09T13:23:24;19.50;;;3.87;;
5616;SDS011;2830;50.656;7.568;2023-07-09T13:25:52;18.50;;;4.37;;
5616;SDS011;2830;50.656;7.568;2023-07-09T13:28:24;23.83;;;6.23;;
5616;SDS011;2830;50.656;7.568;2023-07-09T13:33:41;17.97;;;4.50;;
5616;SDS011;2830;50.656;7.568;2023-07-09T13:36:09;22.43;;;4.93;;
5616;SDS011;2830;50.656;7.568;2023-07-09T13:38:37;20.97;;;4.37;;
5616;SDS011;2830;50.656;7.568;2023-07-09T13:41:10;20.60;;;3.90;;
5616;SDS011;2830;50.656;7.568;2023-07-09T13:43:45;20.07;;;4.07;;
5616;SDS011;2830;50.656;7.568;2023-07-09T13:46:13;18.23;;;3.80;;
5616;SDS011;2830;50.656;7.568;2023-07-09T13:48:42;22.87;;;4.27;;
5616;SDS011;2830;50.656;7.568;2023-07-09T13:51:19;22.90;;;4.20;;
5616;SDS011;2830;50.656;7.568;2023-07-09T13:53:53;17.77;;;3.93;;
5616;SDS011;2830;50.656;7.568;2023-07-09T13:56:21;17.77;;;3.77;;
5616;SDS011;2830;50.656;7.568;2023-07-09T13:58:48;17.87;;;4.07;;
5616;SDS011;2830;50.656;7.568;2023-07-09T14:01:17;19.90;;;4.10;;
5616;SDS011;2830;50.656;7.568;2023-07-09T14:03:47;21.43;;;3.80;;
5616;SDS011;2830;50.656;7.568;2023-07-09T14:06:15;18.77;;;3.80;;
5616;SDS011;2830;50.656;7.568;2023-07-09T14:08:43;21.70;;;3.83;;
5616;SDS011;2830;50.656;7.568;2023-07-09T14:11:11;20.17;;;4.03;;
5616;SDS011;2830;50.656;7.568;2023-07-09T14:13:38;17.43;;;3.70;;
5616;SDS011;2830;50.656;7.568;2023-07-09T14:16:06;19.77;;;3.83;;
5616;SDS011;2830;50.656;7.568;2023-07-09T14:18:35;19.20;;;4.57;;
5616;SDS011;2830;50.656;7.568;2023-07-09T14:21:08;18.53;;;4.13;;
5616;SDS011;2830;50.656;7.568;2023-07-09T14:23:39;21.43;;;4.03;;
5616;SDS011;2830;50.656;7.568;2023-07-09T14:26:08;20.43;;;4.40;;
5616;SDS011;2830;50.656;7.568;2023-07-09T14:28:38;19.63;;;4.23;;
5616;SDS011;2830;50.656;7.568;2023-07-09T14:31:19;18.63;;;3.63;;
5616;SDS011;2830;50.656;7.568;2023-07-09T14:33:51;20.23;;;4.63;;
5616;SDS011;2830;50.656;7.568;2023-07-09T14:36:18;17.70;;;3.87;;
5616;SDS011;2830;50.656;7.568;2023-07-09T14:38:45;19.53;;;3.80;;
5616;SDS011;2830;50.656;7.568;2023-07-09T14:41:19;19.43;;;4.00;;
5616;SDS011;2830;50.656;7.568;2023-07-09T14:43:49;21.67;;;3.80;;
5616;SDS011;2830;50.656;7.568;2023-07-09T14:46:15;21.50;;;4.17;;
5616;SDS011;2830;50.656;7.568;2023-07-09T14:48:42;20.80;;;4.13;;
5616;SDS011;2830;50.656;7.568;2023-07-09T14:51:13;21.00;;;4.27;;
5616;SDS011;2830;50.656;7.568;2023-07-09T14:53:44;20.30;;;4.37;;
5616;SDS011;2830;50.656;7.568;2023-07-09T14:56:12;23.40;;;4.23;;
5616;SDS011;2830;50.656;7.568;2023-07-09T14:58:40;21.47;;;4.50;;
5616;SDS011;2830;50.656;7.568;2023-07-09T15:01:11;20.53;;;4.00;;
5616;SDS011;2830;50.656;7.568;2023-07-09T15:03:39;18.70;;;3.80;;
5616;SDS011;2830;50.656;7.568;2023-07-09T15:06:06;20.20;;;3.93;;
5616;SDS011;2830;50.656;7.568;2023-07-09T15:08:33;24.13;;;4.13;;
5616;SDS011;2830;50.656;7.568;2023-07-09T15:11:00;21.63;;;3.83;;
5616;SDS011;2830;50.656;7.568;2023-07-09T15:16:00;30.30;;;4.37;;
5616;SDS011;2830;50.656;7.568;2023-07-09T15:18:28;21.80;;;4.50;;
5616;SDS011;2830;50.656;7.568;2023-07-09T15:20:57;19.50;;;4.47;;
5616;SDS011;2830;50.656;7.568;2023-07-09T15:23:27;19.87;;;4.63;;
5616;SDS011;2830;50.656;7.568;2023-07-09T15:25:54;19.87;;;5.03;;
5616;SDS011;2830;50.656;7.568;2023-07-09T15:28:22;23.10;;;4.70;;
5616;SDS011;2830;50.656;7.568;2023-07-09T15:30:49;24.40;;;4.90;;
5616;SDS011;2830;50.656;7.568;2023-07-09T15:33:17;22.30;;;4.87;;
5616;SDS011;2830;50.656;7.568;2023-07-09T15:35:46;22.13;;;5.67;;
5616;SDS011;2830;50.656;7.568;2023-07-09T15:40:45;19.53;;;4.20;;
5616;SDS011;2830;50.656;7.568;2023-07-09T15:43:15;19.33;;;4.23;;
5616;SDS011;2830;50.656;7.568;2023-07-09T15:45:48;17.87;;;4.20;;
5616;SDS011;2830;50.656;7.568;2023-07-09T15:48:25;25.97;;;4.70;;
5616;SDS011;2830;50.656;7.568;2023-07-09T15:50:58;33.20;;;5.40;;
5616;SDS011;2830;50.656;7.568;2023-07-09T16:15:19;13.63;;;6.67;;
5616;SDS011;2830;50.656;7.568;2023-07-09T16:17:48;12.63;;;6.50;;
5616;SDS011;2830;50.656;7.568;2023-07-09T16:20:23;11.60;;;7.50;;
5616;SDS011;2830;50.656;7.568;2023-07-09T16:22:54;11.13;;;8.47;;
5616;SDS011;2830;50.656;7.568;2023-07-09T16:25:24;15.53;;;9.20;;